createdAt,value
2022-10-22T00:00:46.624Z,100.00
2022-10-22T00:05:48.430Z,100.00
2022-10-22T00:10:50.968Z,100.00
2022-10-22T00:15:52.272Z,100.00
2022-10-22T00:20:53.580Z,100.00
2022-10-22T00:25:54.977Z,100.00
2022-10-22T00:30:57.796Z,100.00
2022-10-22T00:35:59.209Z,100.00
2022-10-22T00:46:06.840Z,100.00
2022-10-22T00:51:09.340Z,100.00
2022-10-22T00:56:11.402Z,100.00
2022-10-22T01:01:21.629Z,100.00
2022-10-22T01:06:33.412Z,100.00
2022-10-22T01:11:40.623Z,100.00
2022-10-22T01:16:59.183Z,100.00
2022-10-22T01:22:05.865Z,100.00
2022-10-22T01:27:07.166Z,100.00
2022-10-22T01:32:14.706Z,100.00
2022-10-22T01:37:17.955Z,100.00
2022-10-22T01:42:19.306Z,100.00
2022-10-22T01:47:29.703Z,100.00
2022-10-22T01:52:30.990Z,100.00
2022-10-22T01:57:53.291Z,100.00
2022-10-22T02:02:58.832Z,100.00
2022-10-22T02:08:02.408Z,100.00
2022-10-22T02:13:04.874Z,100.00
2022-10-22T02:18:08.581Z,100.00
2022-10-22T02:23:10.351Z,100.00
2022-10-22T02:28:24.522Z,100.00
2022-10-22T02:33:31.259Z,100.00
2022-10-22T02:38:34.423Z,100.00
2022-10-22T02:43:43.089Z,100.00
2022-10-22T02:48:44.395Z,100.00
2022-10-22T02:53:45.771Z,100.00
2022-10-22T02:58:47.071Z,100.00
2022-10-22T03:03:48.570Z,100.00
2022-10-22T03:08:49.931Z,100.00
2022-10-22T03:13:51.257Z,100.00
2022-10-22T03:18:52.610Z,100.00
2022-10-22T03:23:54.175Z,100.00
2022-10-22T03:28:55.636Z,100.00
2022-10-22T03:33:56.938Z,100.00
2022-10-22T03:38:59.284Z,100.00
2022-10-22T03:44:01.791Z,100.00
2022-10-22T03:49:03.139Z,100.00
2022-10-22T03:54:04.981Z,100.00
2022-10-22T03:59:06.291Z,100.00
2022-10-22T04:04:07.767Z,100.00
2022-10-22T04:09:09.190Z,100.00
2022-10-22T04:14:12.023Z,100.00
2022-10-22T04:19:13.416Z,100.00
2022-10-22T04:24:15.083Z,100.00
2022-10-22T04:29:16.573Z,100.00
2022-10-22T04:34:17.942Z,100.00
2022-10-22T04:39:19.342Z,100.00
2022-10-22T04:44:20.627Z,100.00
2022-10-22T04:49:21.936Z,100.00
2022-10-22T04:54:23.283Z,100.00
2022-10-22T04:59:24.592Z,100.00
2022-10-22T05:04:26.013Z,100.00
2022-10-22T05:09:27.389Z,100.00
2022-10-22T05:14:28.695Z,100.00
2022-10-22T05:19:30.941Z,100.00
2022-10-22T05:24:33.522Z,100.00
2022-10-22T05:29:34.904Z,100.00
2022-10-22T05:34:36.333Z,100.00
2022-10-22T05:39:40.193Z,100.00
2022-10-22T05:44:41.515Z,100.00
2022-10-22T05:49:42.823Z,100.00
2022-10-22T05:54:44.143Z,100.00
2022-10-22T05:59:46.051Z,100.00
2022-10-22T06:04:47.734Z,100.00
2022-10-22T06:09:50.262Z,100.00
2022-10-22T06:14:51.562Z,100.00
2022-10-22T06:19:52.882Z,100.00
2022-10-22T06:24:54.221Z,100.00
2022-10-22T06:29:55.539Z,100.00
2022-10-22T06:34:56.945Z,100.00
2022-10-22T06:39:58.251Z,100.00
2022-10-22T06:44:59.614Z,100.00
2022-10-22T06:50:00.918Z,100.00
2022-10-22T06:55:02.285Z,100.00
2022-10-22T07:00:05.120Z,100.00
2022-10-22T07:05:06.723Z,100.00
2022-10-22T07:10:08.443Z,100.00
2022-10-22T07:15:09.975Z,100.00
2022-10-22T07:20:12.422Z,100.00
2022-10-22T07:25:13.763Z,100.00
2022-10-22T07:30:15.133Z,100.00
2022-10-22T07:35:16.463Z,84.80
2022-10-22T07:40:17.762Z,79.20
2022-10-22T07:45:19.116Z,79.78
2022-10-22T07:50:20.426Z,88.09
2022-10-22T07:55:21.733Z,87.47
2022-10-22T08:00:25.226Z,86.20
2022-10-22T08:05:26.871Z,91.71
2022-10-22T08:10:28.174Z,95.95
2022-10-22T08:15:29.624Z,99.26
2022-10-22T08:20:30.924Z,100.00
2022-10-22T08:25:32.500Z,97.92
2022-10-22T08:30:33.995Z,97.97
2022-10-22T08:35:35.356Z,96.45
2022-10-22T08:40:39.684Z,85.52
2022-10-22T08:45:46.448Z,74.48
2022-10-22T08:50:49.737Z,84.54
2022-10-22T08:55:53.550Z,87.66
2022-10-22T09:01:00.853Z,90.13
2022-10-22T09:06:08.459Z,93.47
2022-10-22T09:11:12.549Z,93.37
2022-10-22T09:16:16.502Z,93.97
2022-10-22T09:21:29.784Z,95.66
2022-10-22T09:26:32.371Z,96.04
2022-10-22T09:31:34.265Z,97.53
2022-10-22T09:36:35.866Z,99.94
2022-10-22T09:41:37.173Z,100.00
2022-10-22T09:46:43.882Z,98.85
2022-10-22T09:51:48.286Z,95.89
2022-10-22T09:56:54.306Z,94.61
2022-10-22T10:02:13.374Z,88.68
2022-10-22T10:07:23.525Z,89.77
2022-10-22T10:12:33.973Z,93.12
2022-10-22T10:17:54.231Z,87.28
2022-10-22T10:23:03.159Z,84.61
2022-10-22T10:28:12.615Z,82.66
2022-10-22T10:33:16.975Z,85.86
2022-10-22T10:38:18.245Z,90.23
2022-10-22T10:43:38.290Z,91.30
2022-10-22T10:48:51.116Z,89.41
2022-10-22T10:54:04.874Z,81.73
2022-10-22T10:59:25.609Z,75.29
2022-10-22T11:04:39.551Z,75.19
2022-10-22T11:09:53.586Z,75.25
2022-10-22T11:14:54.863Z,74.02
2022-10-22T11:20:01.758Z,73.19
2022-10-22T11:25:05.777Z,72.86
2022-10-22T11:30:17.931Z,74.32
2022-10-22T11:35:25.905Z,74.68
2022-10-22T11:40:36.918Z,76.31
2022-10-22T11:45:42.554Z,75.85
2022-10-22T11:50:54.237Z,76.58
2022-10-22T11:56:04.938Z,75.71
2022-10-22T12:01:09.356Z,75.72
2022-10-22T12:06:15.654Z,72.66
2022-10-22T12:11:17.179Z,68.87
2022-10-22T12:16:27.326Z,58.84
2022-10-22T12:21:42.776Z,59.80
2022-10-22T12:26:45.919Z,59.14
2022-10-22T12:31:47.408Z,62.05
2022-10-22T12:36:49.561Z,63.86
2022-10-22T12:41:52.012Z,68.38
2022-10-22T12:46:56.882Z,69.67
2022-10-22T12:52:00.859Z,68.55
2022-10-22T12:57:02.416Z,73.07
2022-10-22T13:02:15.359Z,71.10
2022-10-22T13:07:19.952Z,69.74
2022-10-22T13:12:35.623Z,70.06
2022-10-22T13:17:39.161Z,69.21
2022-10-22T13:22:41.835Z,70.03
2022-10-22T13:27:44.228Z,69.84
2022-10-22T13:32:49.871Z,71.25
2022-10-22T13:37:51.452Z,71.55
2022-10-22T13:42:52.765Z,71.71
2022-10-22T13:47:54.725Z,70.07
2022-10-22T13:52:57.528Z,69.06
2022-10-22T13:58:04.443Z,69.19
2022-10-22T14:03:06.575Z,72.68
2022-10-22T14:08:12.676Z,71.17
2022-10-22T14:13:15.446Z,71.96
2022-10-22T14:18:24.134Z,73.56
2022-10-22T14:23:28.567Z,74.86
2022-10-22T14:28:34.138Z,76.22
2022-10-22T14:33:42.276Z,76.01
2022-10-22T14:38:44.167Z,77.93
2022-10-22T14:43:45.727Z,76.58
2022-10-22T14:48:47.556Z,74.96
2022-10-22T14:53:48.933Z,76.35
2022-10-22T14:58:50.808Z,74.10
2022-10-22T15:03:52.171Z,76.10
2022-10-22T15:08:53.533Z,77.93
2022-10-22T15:13:54.873Z,79.38
2022-10-22T15:18:57.156Z,78.47
2022-10-22T15:23:58.653Z,76.89
2022-10-22T15:29:01.846Z,78.82
2022-10-22T15:34:03.139Z,83.29
2022-10-22T15:39:08.634Z,84.44
2022-10-22T15:44:15.612Z,87.42
2022-10-22T15:49:17.307Z,90.71
2022-10-22T15:54:19.977Z,92.33
2022-10-22T15:59:21.392Z,91.34
2022-10-22T16:04:22.722Z,94.96
2022-10-22T16:09:25.386Z,95.09
2022-10-22T16:14:28.616Z,96.43
2022-10-22T16:19:29.935Z,98.06
2022-10-22T16:24:31.310Z,99.22
2022-10-22T16:29:33.503Z,100.00
2022-10-22T16:34:34.845Z,100.00
2022-10-22T16:39:36.202Z,100.00
2022-10-22T16:44:37.538Z,100.00
2022-10-22T16:49:38.859Z,100.00
2022-10-22T16:54:40.295Z,100.00
2022-10-22T16:59:41.568Z,100.00
2022-10-22T17:04:42.924Z,100.00
2022-10-22T17:09:44.221Z,100.00
2022-10-22T17:14:45.525Z,100.00
2022-10-22T17:19:46.891Z,100.00
2022-10-22T17:25:04.360Z,100.00
2022-10-22T17:30:06.099Z,100.00
2022-10-22T17:35:08.145Z,100.00
2022-10-22T17:40:09.968Z,100.00
2022-10-22T17:45:11.262Z,100.00
2022-10-22T17:50:12.574Z,100.00
2022-10-22T17:55:13.953Z,100.00
2022-10-22T18:00:16.332Z,100.00
2022-10-22T18:05:17.690Z,100.00
2022-10-22T18:10:18.991Z,100.00
2022-10-22T18:15:20.300Z,100.00
2022-10-22T18:20:21.672Z,100.00
2022-10-22T18:25:23.017Z,100.00
2022-10-22T18:30:24.350Z,100.00
2022-10-22T18:35:25.646Z,100.00
2022-10-22T18:40:26.943Z,100.00
2022-10-22T18:45:28.291Z,100.00
2022-10-22T18:50:29.692Z,100.00
2022-10-22T18:55:31.157Z,100.00
2022-10-22T19:00:32.976Z,100.00
2022-10-22T19:05:34.294Z,100.00
2022-10-22T19:10:35.596Z,100.00
2022-10-22T19:15:36.898Z,100.00
2022-10-22T19:20:38.222Z,100.00
2022-10-22T19:25:39.567Z,100.00
2022-10-22T19:30:44.097Z,100.00
2022-10-22T19:35:45.404Z,100.00
2022-10-22T19:40:46.727Z,100.00
2022-10-22T19:45:48.070Z,100.00
2022-10-22T19:50:50.973Z,100.00
2022-10-22T19:55:52.346Z,100.00
2022-10-22T20:00:53.827Z,100.00
2022-10-22T20:05:55.225Z,100.00
2022-10-22T20:10:56.543Z,100.00
2022-10-22T20:15:57.962Z,100.00
2022-10-22T20:20:59.756Z,100.00
2022-10-22T20:26:01.133Z,100.00
2022-10-22T20:31:07.461Z,100.00
2022-10-22T20:36:12.656Z,100.00
2022-10-22T20:41:15.434Z,100.00
2022-10-22T20:46:22.347Z,100.00
2022-10-22T20:51:23.728Z,100.00
2022-10-22T20:56:25.630Z,100.00
2022-10-22T21:01:28.450Z,100.00
2022-10-22T21:06:29.902Z,100.00
2022-10-22T21:11:31.259Z,100.00
2022-10-22T21:16:33.073Z,100.00
2022-10-22T21:21:34.588Z,100.00
2022-10-22T21:26:36.957Z,100.00
2022-10-22T21:31:39.339Z,100.00
2022-10-22T21:36:40.733Z,100.00
2022-10-22T21:41:42.084Z,100.00
2022-10-22T21:46:43.476Z,100.00
2022-10-22T21:51:44.877Z,100.00
2022-10-22T21:56:46.245Z,100.00
2022-10-22T22:01:47.595Z,100.00
2022-10-22T22:06:48.954Z,100.00
2022-10-22T22:11:50.260Z,100.00
2022-10-22T22:16:51.593Z,100.00
2022-10-22T22:21:52.978Z,100.00
2022-10-22T22:26:54.322Z,100.00
2022-10-22T22:31:55.622Z,100.00
2022-10-22T22:36:56.929Z,100.00
2022-10-22T22:41:58.318Z,100.00
2022-10-22T22:46:59.624Z,100.00
2022-10-22T22:52:00.927Z,100.00
2022-10-22T22:57:02.242Z,100.00
2022-10-22T23:02:03.570Z,100.00
2022-10-22T23:07:04.912Z,100.00
2022-10-22T23:12:06.303Z,100.00
2022-10-22T23:17:07.634Z,100.00
2022-10-22T23:22:08.935Z,100.00
2022-10-22T23:27:10.714Z,100.00
2022-10-22T23:32:14.265Z,100.00
2022-10-22T23:37:15.652Z,100.00
2022-10-22T23:42:16.990Z,100.00
2022-10-22T23:47:18.295Z,100.00
2022-10-22T23:52:19.601Z,100.00
2022-10-22T23:57:20.977Z,100.00
